Valley City, Illinois
Current Conditions -  °F | °C
As of 2:55 PM on Thursday 20 Nov 2014 (Local Time) from KPPQ Reporting Station
Clear Clear  
Wind Chill: 27°   Ceiling: Unl
Heat Index: 34°   Visibility: 10mi
Dew Point: 14°   Wind: 9mph
Humidity: 43%   Direction: 270°W
Pressure: 30.2"   Gusts: NA
Location:  39.7046°N, 90.7176°W
Report Text: KPPQ 202055Z AUTO 27008KT 10SM CLR 01/M10 A3020 RMK AO2 T00131102 PWINO
Loading
Personal Weather Stations






























Interactive Weather Map New forecast layout! Learn more

10-Day Weather Forecast

Advertisements
Track Severe Weather on mobile